< < Back
Terminal Aerodrome Forecast


Current Version              Previous Versions:   1  2  3  4  5  6  7  8  9  

Terminal Aerodrome Forecast

462
FTUS42 KTAE 220500
TAFTLH
TAF
KTLH 220520Z 2206/2306 00000KT P6SM SKC
      TEMPO 2210/2212 5SM BR
     FM221400 26005KT P6SM SCT040 SCT250
     FM221900 18007KT P6SM VCTS SCT050CB SCT100
     FM230200 33003KT P6SM SCT250=

Latest METAR

635
SAUS80 KWBC 221800 CCA
MTRTLH
METAR KTLH 221753Z 09004KT 10SM SCT055 SCT250 31/17 A2999 RMK AO2 SLP154
T03110167 10322 20161 58016


USA.gov is the U.S. government's official web portal to all federal, state and local government web resources and services.